createdAt,value
2023-05-08T00:01:20.405Z,94.31
2023-05-08T00:03:49.364Z,94.36
2023-05-08T00:06:17.906Z,93.88
2023-05-08T00:08:46.218Z,95.17
2023-05-08T00:11:15.970Z,95.21
2023-05-08T00:13:44.283Z,94.64
2023-05-08T00:16:13.110Z,94.43
2023-05-08T00:18:41.572Z,95.59
2023-05-08T00:21:09.898Z,96.71
2023-05-08T00:23:38.198Z,96.22
2023-05-08T00:26:06.879Z,96.90
2023-05-08T00:28:36.602Z,96.05
2023-05-08T00:31:05.120Z,96.67
2023-05-08T00:33:33.447Z,96.07
2023-05-08T00:36:02.337Z,95.70
2023-05-08T00:38:31.928Z,95.96
2023-05-08T00:41:00.552Z,96.09
2023-05-08T00:43:29.192Z,96.74
2023-05-08T00:46:02.236Z,98.62
2023-05-08T00:48:35.036Z,99.65
2023-05-08T00:51:05.781Z,99.12
2023-05-08T00:53:37.089Z,98.97
2023-05-08T00:56:07.067Z,99.39
2023-05-08T00:58:35.669Z,99.75
2023-05-08T01:01:05.795Z,100.00
2023-05-08T01:03:36.297Z,99.71
2023-05-08T01:06:06.544Z,99.44
2023-05-08T01:08:34.968Z,99.33
2023-05-08T01:11:12.709Z,99.42
2023-05-08T01:13:52.646Z,100.00
2023-05-08T01:16:30.318Z,99.78
2023-05-08T01:19:08.340Z,98.88
2023-05-08T01:21:51.537Z,99.75
2023-05-08T01:24:42.982Z,100.00
2023-05-08T01:27:41.783Z,99.60
2023-05-08T01:30:43.660Z,99.93
2023-05-08T01:33:21.922Z,100.00
2023-05-08T01:35:54.218Z,100.00
2023-05-08T01:38:36.601Z,100.00
2023-05-08T01:41:11.638Z,100.00
2023-05-08T01:43:49.567Z,100.00
2023-05-08T01:46:22.875Z,100.00
2023-05-08T01:48:57.390Z,100.00
2023-05-08T01:51:28.502Z,100.00
2023-05-08T01:54:01.779Z,100.00
2023-05-08T01:56:31.440Z,100.00
2023-05-08T01:59:02.552Z,100.00
2023-05-08T02:01:34.435Z,100.00
2023-05-08T02:04:06.722Z,100.00
2023-05-08T02:06:37.154Z,100.00
2023-05-08T02:09:09.105Z,100.00
2023-05-08T02:11:39.107Z,100.00
2023-05-08T02:14:08.771Z,100.00
2023-05-08T02:16:38.727Z,100.00
2023-05-08T02:19:10.449Z,100.00
2023-05-08T02:21:40.648Z,100.00
2023-05-08T02:24:09.869Z,100.00
2023-05-08T02:26:40.535Z,100.00
2023-05-08T02:29:09.903Z,100.00
2023-05-08T02:31:39.854Z,100.00
2023-05-08T02:34:11.949Z,99.14
2023-05-08T02:36:42.010Z,99.81
2023-05-08T02:39:14.960Z,100.00
2023-05-08T02:41:43.368Z,100.00
2023-05-08T02:44:11.971Z,100.00
2023-05-08T02:46:47.149Z,100.00
2023-05-08T02:49:28.848Z,100.00
2023-05-08T02:52:02.741Z,100.00
2023-05-08T02:54:37.740Z,100.00
2023-05-08T02:57:14.289Z,100.00
2023-05-08T02:59:47.186Z,100.00
2023-05-08T03:02:22.840Z,100.00
2023-05-08T03:04:56.633Z,100.00
2023-05-08T03:07:29.439Z,100.00
2023-05-08T03:10:11.747Z,100.00
2023-05-08T03:12:44.438Z,100.00
2023-05-08T03:15:19.274Z,100.00
2023-05-08T03:17:50.031Z,100.00
2023-05-08T03:20:22.379Z,100.00
2023-05-08T03:22:53.370Z,100.00
2023-05-08T03:25:22.375Z,100.00
2023-05-08T03:27:53.244Z,100.00
2023-05-08T03:30:22.094Z,100.00
2023-05-08T03:32:52.085Z,100.00
2023-05-08T03:35:23.521Z,100.00
2023-05-08T03:37:53.629Z,100.00
2023-05-08T03:40:21.984Z,100.00
2023-05-08T03:42:51.573Z,100.00
2023-05-08T03:45:21.181Z,100.00
2023-05-08T03:47:50.220Z,100.00
2023-05-08T03:50:18.876Z,100.00
2023-05-08T03:52:49.053Z,100.00
2023-05-08T03:55:17.569Z,100.00
2023-05-08T03:57:57.268Z,100.00
2023-05-08T04:00:33.057Z,100.00
2023-05-08T04:03:12.747Z,100.00
2023-05-08T04:05:48.203Z,100.00
2023-05-08T04:08:23.525Z,100.00
2023-05-08T04:10:58.563Z,100.00
2023-05-08T04:13:29.676Z,100.00
2023-05-08T04:16:06.332Z,100.00
2023-05-08T04:18:38.815Z,100.00
2023-05-08T04:21:11.425Z,100.00
2023-05-08T04:23:43.631Z,100.00
2023-05-08T04:26:15.210Z,100.00
2023-05-08T04:28:46.721Z,100.00
2023-05-08T04:31:15.570Z,100.00
2023-05-08T04:33:45.540Z,100.00
2023-05-08T04:36:14.806Z,100.00
2023-05-08T04:38:44.789Z,100.00
2023-05-08T04:41:13.212Z,100.00
2023-05-08T04:43:41.560Z,100.00
2023-05-08T04:46:10.207Z,100.00
2023-05-08T04:48:38.594Z,100.00
2023-05-08T04:51:07.063Z,100.00
2023-05-08T04:53:35.379Z,100.00
2023-05-08T04:56:05.659Z,100.00
2023-05-08T04:58:33.982Z,100.00
2023-05-08T05:01:03.987Z,100.00
2023-05-08T05:03:32.674Z,100.00
2023-05-08T05:06:01.414Z,100.00
2023-05-08T05:08:29.831Z,100.00
2023-05-08T05:10:58.128Z,100.00
2023-05-08T05:13:28.195Z,100.00
2023-05-08T05:15:56.692Z,100.00
2023-05-08T05:18:24.985Z,100.00
2023-05-08T05:20:53.285Z,100.00
2023-05-08T05:23:21.587Z,100.00
2023-05-08T05:25:49.868Z,100.00
2023-05-08T05:28:18.140Z,100.00
2023-05-08T05:30:49.399Z,100.00
2023-05-08T05:33:17.981Z,100.00
2023-05-08T05:35:46.306Z,100.00
2023-05-08T05:38:14.653Z,99.07
2023-05-08T05:40:43.155Z,97.48
2023-05-08T05:43:11.564Z,96.80
2023-05-08T05:45:40.116Z,96.05
2023-05-08T05:48:09.911Z,96.00
2023-05-08T05:50:38.977Z,95.02
2023-05-08T05:53:07.451Z,92.94
2023-05-08T05:55:35.724Z,93.43
2023-05-08T05:58:04.070Z,92.68
2023-05-08T06:00:32.340Z,91.83
2023-05-08T06:03:02.323Z,91.32
2023-05-08T06:05:32.668Z,89.75
2023-05-08T06:08:00.964Z,89.86
2023-05-08T06:10:29.447Z,88.69
2023-05-08T06:12:57.984Z,87.96
2023-05-08T06:15:26.806Z,87.43
2023-05-08T06:17:55.269Z,87.11
2023-05-08T06:20:25.636Z,85.98
2023-05-08T06:22:56.123Z,85.49
2023-05-08T06:25:24.688Z,84.13
2023-05-08T06:27:53.003Z,82.94
2023-05-08T06:30:21.507Z,82.95
2023-05-08T06:32:50.181Z,84.01
2023-05-08T06:35:19.392Z,82.07
2023-05-08T06:37:47.928Z,82.14
2023-05-08T06:40:17.686Z,79.69
2023-05-08T06:42:46.222Z,79.98
2023-05-08T06:45:14.792Z,80.93
2023-05-08T06:47:43.402Z,81.69
2023-05-08T06:50:12.100Z,80.01
2023-05-08T06:52:40.612Z,80.70
2023-05-08T06:55:09.731Z,80.27
2023-05-08T06:57:39.359Z,79.04
2023-05-08T07:00:09.179Z,78.43
2023-05-08T07:02:37.661Z,78.43
2023-05-08T07:05:06.952Z,78.08
2023-05-08T07:07:35.332Z,77.87
2023-05-08T07:10:05.364Z,77.02
2023-05-08T07:12:34.865Z,74.47
2023-05-08T07:15:17.810Z,73.07
2023-05-08T07:17:52.904Z,72.97
2023-05-08T07:20:21.712Z,73.23
2023-05-08T07:22:50.261Z,72.68
2023-05-08T07:25:18.607Z,72.78
2023-05-08T07:27:47.416Z,71.70
2023-05-08T07:30:17.395Z,69.14
2023-05-08T07:32:45.735Z,67.07
2023-05-08T07:35:15.370Z,66.57
2023-05-08T07:37:44.436Z,65.27
2023-05-08T07:40:12.970Z,65.26
2023-05-08T07:42:42.427Z,65.60
2023-05-08T07:45:13.162Z,65.67
2023-05-08T07:47:51.424Z,65.34
2023-05-08T07:50:20.262Z,64.86
2023-05-08T07:52:50.158Z,64.01
2023-05-08T07:55:19.461Z,63.62
2023-05-08T07:57:47.852Z,62.73
2023-05-08T08:00:17.109Z,61.37
2023-05-08T08:02:46.205Z,61.56
2023-05-08T08:05:16.191Z,60.34
2023-05-08T08:07:44.761Z,60.54
2023-05-08T08:10:13.174Z,60.84
2023-05-08T08:12:41.676Z,59.97
2023-05-08T08:15:10.989Z,58.23
2023-05-08T08:17:39.589Z,58.91
2023-05-08T08:20:09.300Z,57.79
2023-05-08T08:22:40.059Z,56.60
2023-05-08T08:25:09.361Z,55.44
2023-05-08T08:27:37.698Z,54.91
2023-05-08T08:30:17.011Z,54.30
2023-05-08T08:32:47.436Z,53.56
2023-05-08T08:35:16.799Z,52.01
2023-05-08T08:37:47.005Z,50.51
2023-05-08T08:40:15.353Z,51.13
2023-05-08T08:42:43.738Z,50.02
2023-05-08T08:45:12.657Z,49.86
2023-05-08T08:47:43.552Z,51.00
2023-05-08T08:50:14.972Z,48.48
2023-05-08T08:52:56.870Z,49.38
2023-05-08T08:55:27.324Z,49.90
2023-05-08T08:58:04.671Z,51.72
2023-05-08T09:00:34.062Z,50.47
2023-05-08T09:03:02.724Z,50.88
2023-05-08T09:05:31.726Z,52.98
2023-05-08T09:08:02.300Z,52.07
2023-05-08T09:10:30.786Z,50.20
2023-05-08T09:12:59.152Z,47.82
2023-05-08T09:15:27.523Z,48.29
2023-05-08T09:17:56.048Z,47.74
2023-05-08T09:20:24.634Z,47.84
2023-05-08T09:22:53.898Z,48.37
2023-05-08T09:25:24.548Z,50.24
2023-05-08T09:27:52.862Z,48.45
2023-05-08T09:30:21.266Z,49.36
2023-05-08T09:32:50.009Z,47.29
2023-05-08T09:35:18.389Z,48.12
2023-05-08T09:37:47.465Z,45.16
2023-05-08T09:40:17.802Z,44.32
2023-05-08T09:42:48.693Z,45.85
2023-05-08T09:45:31.104Z,46.10
2023-05-08T09:47:59.900Z,47.11
2023-05-08T09:50:28.317Z,47.72
2023-05-08T09:52:56.751Z,45.18
2023-05-08T09:55:25.402Z,43.44
2023-05-08T09:57:57.159Z,43.29
2023-05-08T10:00:26.967Z,44.82
2023-05-08T10:02:57.731Z,45.51
2023-05-08T10:05:27.829Z,45.92
2023-05-08T10:07:56.576Z,43.71
2023-05-08T10:10:27.348Z,43.42
2023-05-08T10:12:58.365Z,43.89
2023-05-08T10:15:31.184Z,43.51
2023-05-08T10:18:05.482Z,42.96
2023-05-08T10:20:34.663Z,41.72
2023-05-08T10:23:05.116Z,41.67
2023-05-08T10:25:36.373Z,38.29
2023-05-08T10:28:17.498Z,39.15
2023-05-08T10:30:50.042Z,37.38
2023-05-08T10:33:28.482Z,36.35
2023-05-08T10:35:59.690Z,34.79
2023-05-08T10:38:28.628Z,35.03
2023-05-08T10:41:01.207Z,35.06
2023-05-08T10:43:32.095Z,34.39
2023-05-08T10:46:09.247Z,33.15
2023-05-08T10:48:49.242Z,34.42
2023-05-08T10:51:24.666Z,34.14
2023-05-08T10:53:58.178Z,34.63
2023-05-08T10:56:27.406Z,33.95
2023-05-08T10:59:00.965Z,34.43
2023-05-08T11:01:29.436Z,32.92
2023-05-08T11:03:58.261Z,32.27
2023-05-08T11:06:45.891Z,32.37
2023-05-08T11:09:22.817Z,32.77
2023-05-08T11:12:05.047Z,30.66
2023-05-08T11:14:36.427Z,31.80
2023-05-08T11:17:06.857Z,29.96
2023-05-08T11:19:36.618Z,30.55
2023-05-08T11:22:16.234Z,29.87
2023-05-08T11:24:54.447Z,30.26
2023-05-08T11:27:38.085Z,30.42
2023-05-08T11:30:35.663Z,29.78
2023-05-08T11:33:17.662Z,30.86
2023-05-08T11:35:54.702Z,31.16
2023-05-08T11:38:28.313Z,30.26
2023-05-08T11:40:59.273Z,28.04
2023-05-08T11:43:59.717Z,28.29
2023-05-08T11:46:39.380Z,27.25
2023-05-08T11:49:12.367Z,31.08
2023-05-08T11:51:44.800Z,30.16
2023-05-08T11:54:15.742Z,30.65
2023-05-08T11:56:46.250Z,29.28
2023-05-08T11:59:16.858Z,27.99
2023-05-08T12:04:22.357Z,29.36
2023-05-08T12:06:51.643Z,29.88
2023-05-08T12:09:20.493Z,26.64
2023-05-08T12:11:58.083Z,26.77
2023-05-08T12:14:26.542Z,27.64
2023-05-08T12:16:56.358Z,26.71
2023-05-08T12:19:24.806Z,27.77
2023-05-08T12:21:53.149Z,27.69
2023-05-08T12:24:24.357Z,26.95
2023-05-08T12:26:56.555Z,28.11
2023-05-08T12:29:27.223Z,28.97
2023-05-08T12:31:57.383Z,29.24
2023-05-08T12:34:26.065Z,27.28
2023-05-08T12:37:03.472Z,25.87
2023-05-08T12:39:37.466Z,26.21
2023-05-08T12:42:06.045Z,25.44
2023-05-08T12:44:34.440Z,24.63
2023-05-08T12:47:06.790Z,25.55
2023-05-08T12:49:35.219Z,25.86
2023-05-08T12:52:05.085Z,26.09
2023-05-08T12:54:37.753Z,27.63
2023-05-08T12:57:12.702Z,27.67
2023-05-08T12:59:41.709Z,25.47
2023-05-08T13:02:16.413Z,24.50
2023-05-08T13:04:45.512Z,24.33
2023-05-08T13:07:14.187Z,25.83
2023-05-08T13:09:57.516Z,25.24
2023-05-08T13:12:25.856Z,25.49
2023-05-08T13:14:54.163Z,24.54
2023-05-08T13:17:24.257Z,27.22
2023-05-08T13:19:52.597Z,26.87
2023-05-08T13:22:23.052Z,24.72
2023-05-08T13:24:51.590Z,25.13
2023-05-08T13:27:20.150Z,23.39
2023-05-08T13:29:48.515Z,22.49
2023-05-08T13:32:16.892Z,22.79
2023-05-08T13:34:50.456Z,23.37
2023-05-08T13:37:20.575Z,25.09
2023-05-08T13:39:48.969Z,25.50
2023-05-08T13:42:17.299Z,23.81
2023-05-08T13:44:45.649Z,24.05
2023-05-08T13:47:14.144Z,25.67
2023-05-08T13:49:44.141Z,24.57
2023-05-08T13:52:14.200Z,25.20
2023-05-08T13:54:42.683Z,22.73
2023-05-08T13:57:12.065Z,24.58
2023-05-08T13:59:40.649Z,22.29
2023-05-08T14:02:09.126Z,22.96
2023-05-08T14:04:37.897Z,24.45
2023-05-08T14:07:06.471Z,25.24
2023-05-08T14:09:36.287Z,23.43
2023-05-08T14:12:04.913Z,24.59
2023-05-08T14:14:34.504Z,23.16
2023-05-08T14:17:03.445Z,22.71
2023-05-08T14:19:31.883Z,23.17
2023-05-08T14:22:00.514Z,23.52
2023-05-08T14:24:29.048Z,23.98
2023-05-08T14:26:59.404Z,25.92
2023-05-08T14:29:27.841Z,24.86
2023-05-08T14:31:56.293Z,24.26
2023-05-08T14:34:24.771Z,22.92
2023-05-08T14:36:53.194Z,25.14
2023-05-08T14:39:21.654Z,23.01
2023-05-08T14:44:23.186Z,24.88
2023-05-08T14:46:51.877Z,23.78
2023-05-08T14:49:32.820Z,22.79
2023-05-08T14:52:06.738Z,23.26
2023-05-08T14:54:35.287Z,25.76
2023-05-08T14:57:03.887Z,24.62
2023-05-08T14:59:33.613Z,25.83
2023-05-08T15:02:02.104Z,24.68
2023-05-08T15:04:30.698Z,25.63
2023-05-08T15:06:59.104Z,24.34
2023-05-08T15:09:27.433Z,25.73
2023-05-08T15:11:55.920Z,24.58
2023-05-08T15:14:24.438Z,25.22
2023-05-08T15:16:54.139Z,25.28
2023-05-08T15:19:22.539Z,24.21
2023-05-08T15:21:50.841Z,24.82
2023-05-08T15:24:19.398Z,24.38
2023-05-08T15:26:47.704Z,23.83
2023-05-08T15:29:16.030Z,25.37
2023-05-08T15:31:44.428Z,25.90
2023-05-08T15:34:14.118Z,26.40
2023-05-08T15:36:42.436Z,25.36
2023-05-08T15:39:10.851Z,26.01
2023-05-08T15:41:41.029Z,25.96
2023-05-08T15:44:09.397Z,27.66
2023-05-08T15:46:37.789Z,28.13
2023-05-08T15:49:06.132Z,26.99
2023-05-08T15:51:35.816Z,26.41
2023-05-08T15:54:04.396Z,26.99
2023-05-08T15:56:32.926Z,27.11
2023-05-08T15:59:01.280Z,27.80
2023-05-08T16:01:29.756Z,27.29
2023-05-08T16:03:58.197Z,27.48
2023-05-08T16:06:26.580Z,27.61
2023-05-08T16:08:56.322Z,28.46
2023-05-08T16:11:24.634Z,29.89
2023-05-08T16:13:53.066Z,29.21
2023-05-08T16:16:21.424Z,29.31
2023-05-08T16:18:49.873Z,29.85
2023-05-08T16:21:18.421Z,28.41
2023-05-08T16:23:46.870Z,30.14
2023-05-08T16:26:16.868Z,28.98
2023-05-08T16:28:45.298Z,29.76
2023-05-08T16:31:13.955Z,30.31
2023-05-08T16:33:42.750Z,31.36
2023-05-08T16:36:11.689Z,31.19
2023-05-08T16:38:40.203Z,32.71
2023-05-08T16:41:10.339Z,31.65
2023-05-08T16:43:40.442Z,31.86
2023-05-08T16:46:09.339Z,32.12
2023-05-08T16:48:38.040Z,31.33
2023-05-08T16:51:06.393Z,30.66
2023-05-08T16:53:34.862Z,31.10
2023-05-08T16:56:03.354Z,32.08
2023-05-08T16:58:31.761Z,33.64
2023-05-08T17:01:01.513Z,33.04
2023-05-08T17:03:30.364Z,32.72
2023-05-08T17:05:58.733Z,32.10
2023-05-08T17:08:27.145Z,31.60
2023-05-08T17:10:55.472Z,32.07
2023-05-08T17:13:23.853Z,31.11
2023-05-08T17:15:52.295Z,32.82
2023-05-08T17:18:22.067Z,31.82
2023-05-08T17:20:51.709Z,31.82
2023-05-08T17:23:20.131Z,31.39
2023-05-08T17:25:48.505Z,32.30
2023-05-08T17:28:16.908Z,32.50
2023-05-08T17:30:46.445Z,32.00
2023-05-08T17:33:15.415Z,32.54
2023-05-08T17:35:45.201Z,32.24
2023-05-08T17:38:13.565Z,33.44
2023-05-08T17:40:41.903Z,33.42
2023-05-08T17:43:10.576Z,32.48
2023-05-08T17:45:38.996Z,33.80
2023-05-08T17:48:08.083Z,32.45
2023-05-08T17:50:36.792Z,33.70
2023-05-08T17:53:06.834Z,34.50
2023-05-08T17:55:35.233Z,33.11
2023-05-08T17:58:03.607Z,34.40
2023-05-08T18:00:32.027Z,34.15
2023-05-08T18:03:00.794Z,34.31
2023-05-08T18:05:30.453Z,34.33
2023-05-08T18:07:59.354Z,35.16
2023-05-08T18:10:29.236Z,34.30
2023-05-08T18:12:57.656Z,34.66
2023-05-08T18:15:26.128Z,35.96
2023-05-08T18:17:54.613Z,34.93
2023-05-08T18:20:23.519Z,36.30
2023-05-08T18:22:52.040Z,36.34
2023-05-08T18:25:20.776Z,35.58
2023-05-08T18:27:51.842Z,36.56
2023-05-08T18:30:20.225Z,36.08
2023-05-08T18:32:48.585Z,36.40
2023-05-08T18:35:17.895Z,35.79
2023-05-08T18:37:46.245Z,37.26
2023-05-08T18:40:15.224Z,37.33
2023-05-08T18:42:43.761Z,35.94
2023-05-08T18:45:13.847Z,35.91
2023-05-08T18:47:42.352Z,37.40
2023-05-08T18:50:11.767Z,37.80
2023-05-08T18:52:40.818Z,37.65
2023-05-08T18:55:10.236Z,36.96
2023-05-08T18:57:38.689Z,37.99
2023-05-08T19:00:08.304Z,38.60
2023-05-08T19:02:38.321Z,37.48
2023-05-08T19:05:07.804Z,38.75
2023-05-08T19:07:36.510Z,39.59
2023-05-08T19:10:05.537Z,40.07
2023-05-08T19:12:34.039Z,39.88
2023-05-08T19:15:02.353Z,40.18
2023-05-08T19:17:30.873Z,40.73
2023-05-08T19:20:00.570Z,41.38
2023-05-08T19:22:28.937Z,41.55
2023-05-08T19:24:57.481Z,42.46
2023-05-08T19:27:26.126Z,42.53
2023-05-08T19:29:54.674Z,43.80
2023-05-08T19:32:23.161Z,43.20
2023-05-08T19:34:51.574Z,43.44
2023-05-08T19:37:21.646Z,44.35
2023-05-08T19:39:49.989Z,44.15
2023-05-08T19:42:18.375Z,45.21
2023-05-08T19:44:46.710Z,46.15
2023-05-08T19:47:15.511Z,47.55
2023-05-08T19:49:44.158Z,47.29
2023-05-08T19:52:12.517Z,48.12
2023-05-08T19:54:43.415Z,48.96
2023-05-08T19:57:11.973Z,49.62
2023-05-08T19:59:40.415Z,49.63
2023-05-08T20:02:08.929Z,50.38
2023-05-08T20:04:54.499Z,50.26
2023-05-08T20:07:26.089Z,50.56
2023-05-08T20:09:56.096Z,50.53
2023-05-08T20:12:24.673Z,52.18
2023-05-08T20:14:53.424Z,52.01
2023-05-08T20:17:21.929Z,52.24
2023-05-08T20:19:50.438Z,53.21
2023-05-08T20:22:18.773Z,53.14
2023-05-08T20:24:47.145Z,53.42
2023-05-08T20:27:16.883Z,54.06
2023-05-08T20:29:45.441Z,53.68
2023-05-08T20:32:16.294Z,54.33
2023-05-08T20:34:45.101Z,54.09
2023-05-08T20:37:15.817Z,54.68
2023-05-08T20:39:45.087Z,55.61
2023-05-08T20:42:13.457Z,55.77
2023-05-08T20:44:43.266Z,55.34
2023-05-08T20:47:11.816Z,55.37
2023-05-08T20:49:40.155Z,56.59
2023-05-08T20:52:08.475Z,56.22
2023-05-08T20:54:36.968Z,56.35
2023-05-08T20:57:05.503Z,55.62
2023-05-08T20:59:33.797Z,55.38
2023-05-08T21:02:03.542Z,55.53
2023-05-08T21:04:32.010Z,56.38
2023-05-08T21:07:00.701Z,56.99
2023-05-08T21:09:29.128Z,56.83
2023-05-08T21:11:57.487Z,56.44
2023-05-08T21:14:25.860Z,56.40
2023-05-08T21:16:54.928Z,56.88
2023-05-08T21:19:24.653Z,55.77
2023-05-08T21:21:52.976Z,56.52
2023-05-08T21:24:21.894Z,56.94
2023-05-08T21:26:50.222Z,57.21
2023-05-08T21:29:18.540Z,57.55
2023-05-08T21:31:46.942Z,57.84
2023-05-08T21:34:16.370Z,57.15
2023-05-08T21:36:45.991Z,57.63
2023-05-08T21:39:14.849Z,57.77
2023-05-08T21:41:43.713Z,57.60
2023-05-08T21:44:12.896Z,58.36
2023-05-08T21:46:41.270Z,57.22
2023-05-08T21:49:10.117Z,58.31
2023-05-08T21:51:38.434Z,59.17
2023-05-08T21:54:08.152Z,59.58
2023-05-08T21:56:36.461Z,59.42
2023-05-08T21:59:04.776Z,60.16
2023-05-08T22:01:33.346Z,60.53
2023-05-08T22:04:01.923Z,61.08
2023-05-08T22:06:30.466Z,62.10
2023-05-08T22:08:59.051Z,61.16
2023-05-08T22:11:28.753Z,62.08
2023-05-08T22:13:57.043Z,62.87
2023-05-08T22:16:25.396Z,63.08
2023-05-08T22:18:53.714Z,63.85
2023-05-08T22:21:22.040Z,62.90
2023-05-08T22:23:50.339Z,63.65
2023-05-08T22:26:19.832Z,64.22
2023-05-08T22:28:49.679Z,64.18
2023-05-08T22:31:17.982Z,63.57
2023-05-08T22:33:46.624Z,64.26
2023-05-08T22:36:14.892Z,63.49
2023-05-08T22:38:43.178Z,64.85
2023-05-08T22:41:11.744Z,65.11
2023-05-08T22:43:40.056Z,65.41
2023-05-08T22:46:09.905Z,65.84
2023-05-08T22:48:38.485Z,65.76
2023-05-08T22:51:07.664Z,64.04
2023-05-08T22:53:36.163Z,64.17
2023-05-08T22:56:04.817Z,65.19
2023-05-08T22:58:33.128Z,63.94
2023-05-08T23:01:01.560Z,63.79
2023-05-08T23:03:31.796Z,64.56
2023-05-08T23:06:00.126Z,64.29
2023-05-08T23:08:28.421Z,63.92
2023-05-08T23:10:56.782Z,64.64
2023-05-08T23:13:25.114Z,65.73
2023-05-08T23:15:53.480Z,65.69
2023-05-08T23:18:21.810Z,65.21
2023-05-08T23:20:51.471Z,65.12
2023-05-08T23:23:19.775Z,66.83
2023-05-08T23:25:48.093Z,65.79
2023-05-08T23:28:16.411Z,66.25
2023-05-08T23:30:44.727Z,66.67
2023-05-08T23:33:13.064Z,66.96
2023-05-08T23:35:41.358Z,67.00
2023-05-08T23:38:11.115Z,68.49
2023-05-08T23:40:39.408Z,69.31
2023-05-08T23:43:07.737Z,69.18
2023-05-08T23:45:36.090Z,69.47
2023-05-08T23:48:04.696Z,69.27
2023-05-08T23:50:33.072Z,69.74
2023-05-08T23:53:01.708Z,70.72
2023-05-08T23:55:31.619Z,72.27
2023-05-08T23:57:59.909Z,71.87
